LTBULTFE

Guest
Details From LTBU - CORLU
To LTFE - MILAS BODRUM
Flight Number -
Tags generated
Created
Modified
Stats Distance 242 nm / 448 km
Max Altitude 28,600 ft / 8,717 m
Waypoints 4
Social Downloads 3
Likes 0
Share VATSIM

Download

Looking for another format? Having issues loading an existing format? Contact us
Advertisement - Login to hide

Notes

Basic altitude profile: - Ascent Rate: 2500ft/min - Ascent Speed: 250kts - Cruise Altitude: 35000ft - Cruise Speed: 420kts - Descent Rate: 1500ft/min - Descent Speed: 250kts Options: - Use NATs: yes - Use PACOTS: yes - Use low airways: yes - Use high airways: yes

Route

LTBU DUGLA UG80 BERGO LTFE

ID Type Via Altitude Latitude Longitude Leg Dist Tot Dist Heading (true) Name
O LTBU APT - 0 ft / 0 m 41.13825˚ 27.91894˚ - 0 nm - CORLU
DUGLA FIX - 28,600 ft / 8,717 m 39.49889˚ 27.22444˚ 103 nm 103 nm 198° / 198° -
BERGO FIX UG80 (AWY-HI) 28,500 ft / 8,687 m 38.99889˚ 27.13278˚ 30 nm 133 nm 188° / 188° -
O LTFE APT - 0 ft / 0 m 37.25112˚ 27.66535˚ 107 nm 241 nm 166° / 167° MILAS BODRUM

Altitude Profile

Advertisement - Login to hide

Weather


0- 5 10 15 20 25 30 35+ Temperature / ° C

Clouds and Precipitation
Forecast for 2017-12-13 12:00 UTC. Updated 9 minutes ago

Ground ~20,000 ft ~40,000 ft Winds

LTBU

Details ICAO LTBU (TEQ)
Name CORLU
Region Turkey
Timezone Europe/Istanbul (UTC+3.0)
Stats Elevation 574 ft / 175 m (AMSL)
Location 41.138250° 27.918944°
Runways 1
Magnetic Variation 5.345° E

METAR

LTBU 130650Z VRB02KT CAVOK 11/10 Q1020

Decode

TAF

TAF AMD LTBU 130201Z 1302/1324 21008KT CAVOK TEMPO 1302/1306 1200 BCFG SCT010=

Decode

Departure Runways

ID Width Length Bearing (true) Bearing (mag) Surface Threshold Offset Overrun Length
05 148 ft / 45 m 9,899 ft / 3,017 m 49.36° 44.01° Concrete 0 ft / 0 m 458 ft / 140 m
23 148 ft / 45 m 9,899 ft / 3,017 m 229.37° 224.02° Concrete 0 ft / 0 m 495 ft / 151 m

LTFE

Details ICAO LTFE (BJV)
Name MILAS BODRUM
Region Turkey
Timezone Europe/Istanbul (UTC+3.0)
Stats Elevation 21 ft / 6 m (AMSL)
Location 37.251115° 27.665350°
Runways 1
Magnetic Variation 4.831° E

METAR

LTFE 130650Z 00000KT 4600 BR NSC 09/08 Q1022 BECMG TL0800 9999 NSW

Decode

TAF

Not found

Destination Runways

ID Width Length Bearing (true) Bearing (mag) Surface Threshold Offset Overrun Length
11 148 ft / 45 m 9,786 ft / 2,983 m 106.68° 101.85° Concrete 0 ft / 0 m 208 ft / 63 m
29 148 ft / 45 m 9,786 ft / 2,983 m 286.70° 281.87° Concrete 0 ft / 0 m 201 ft / 61 m

Approach Navaids

Runway Type Ident Frequency Range Bearing (true) Bearing (mag) Slope Elevation
11 Localiser IBDR 109.30 MHz 18 nm / 33 km 106.64° 101.81° - 21 ft / 6 m (AMSL)
11 Glidescope IBDR 109.30 MHz 10 nm / 19 km 106.69° 101.86° 3.30° 21 ft / 6 m (AMSL)
29 Localiser IGML 109.10 MHz 18 nm / 33 km 286.68° 281.85° - 21 ft / 6 m (AMSL)
29 Glidescope IGML 109.10 MHz 10 nm / 19 km 286.69° 281.86° 3.90° 21 ft / 6 m (AMSL)